createdAt,value
2019-03-03T00:00:43.872Z,10.07
2019-03-03T00:03:13.246Z,11.83
2019-03-03T00:05:42.060Z,12.10
2019-03-03T00:08:10.878Z,12.13
2019-03-03T00:10:39.699Z,10.53
2019-03-03T00:13:08.507Z,10.97
2019-03-03T00:15:37.291Z,9.83
2019-03-03T00:18:06.156Z,12.50
2019-03-03T00:20:34.914Z,9.30
2019-03-03T00:23:03.752Z,12.80
2019-03-03T00:25:42.284Z,13.50
2019-03-03T00:28:11.100Z,16.53
2019-03-03T00:30:39.904Z,10.37
2019-03-03T00:33:08.774Z,12.90
2019-03-03T00:35:37.802Z,13.67
2019-03-03T00:38:24.403Z,12.60
2019-03-03T00:41:10.178Z,15.37
2019-03-03T00:44:06.867Z,18.03
2019-03-03T00:46:57.695Z,14.50
2019-03-03T00:49:45.521Z,14.60
2019-03-03T00:52:33.430Z,14.80
2019-03-03T00:55:20.102Z,17.20
2019-03-03T00:58:04.040Z,15.57
2019-03-03T01:00:40.937Z,15.97
2019-03-03T01:03:28.806Z,13.87
2019-03-03T01:06:25.727Z,18.07
2019-03-03T01:09:07.970Z,17.43
2019-03-03T01:11:54.996Z,11.10
2019-03-03T01:14:31.970Z,15.57
2019-03-03T01:17:19.783Z,15.03
2019-03-03T01:20:13.765Z,15.53
2019-03-03T01:23:03.166Z,10.77
2019-03-03T01:25:32.500Z,14.97
2019-03-03T01:28:01.414Z,14.40
2019-03-03T01:30:30.166Z,10.07
2019-03-03T01:32:59.015Z,13.27
2019-03-03T01:35:27.760Z,15.00
2019-03-03T01:37:56.653Z,15.90
2019-03-03T01:40:25.441Z,13.63
2019-03-03T01:42:54.272Z,12.40
2019-03-03T01:45:23.196Z,12.73
2019-03-03T01:47:51.952Z,12.03
2019-03-03T01:50:21.020Z,17.47
2019-03-03T01:52:49.843Z,8.97
2019-03-03T01:55:18.746Z,14.13
2019-03-03T01:57:47.537Z,8.50
2019-03-03T02:00:23.431Z,8.40
2019-03-03T02:02:52.311Z,10.13
2019-03-03T02:05:21.255Z,9.53
2019-03-03T02:07:50.324Z,10.00
2019-03-03T02:10:21.760Z,11.47
2019-03-03T02:12:50.930Z,12.03
2019-03-03T02:15:21.570Z,8.07
2019-03-03T02:17:50.405Z,12.87
2019-03-03T02:20:19.384Z,7.87
2019-03-03T02:22:48.241Z,15.83
2019-03-03T02:25:17.031Z,7.53
2019-03-03T02:27:45.798Z,9.20
2019-03-03T02:30:15.919Z,11.93
2019-03-03T02:32:44.658Z,10.90
2019-03-03T02:35:13.557Z,11.13
2019-03-03T02:37:42.469Z,11.33
2019-03-03T02:40:12.443Z,14.03
2019-03-03T02:42:41.226Z,9.27
2019-03-03T02:45:11.251Z,7.97
2019-03-03T02:47:39.999Z,14.23
2019-03-03T02:50:09.427Z,9.80
2019-03-03T02:52:38.204Z,7.13
2019-03-03T02:55:07.826Z,8.87
2019-03-03T02:57:39.102Z,9.77
2019-03-03T03:00:10.407Z,8.37
2019-03-03T03:02:59.166Z,10.90
2019-03-03T03:05:59.023Z,11.80
2019-03-03T03:08:32.549Z,13.67
2019-03-03T03:11:19.172Z,11.80
2019-03-03T03:14:05.990Z,8.03
2019-03-03T03:16:52.415Z,7.90
2019-03-03T03:19:52.166Z,11.20
2019-03-03T03:22:40.114Z,8.57
2019-03-03T03:25:43.251Z,11.37
2019-03-03T03:28:37.318Z,9.03
2019-03-03T03:31:14.618Z,11.63
2019-03-03T03:33:49.809Z,11.33
2019-03-03T03:36:28.118Z,8.23
2019-03-03T03:39:07.303Z,8.43
2019-03-03T03:41:53.205Z,10.93
2019-03-03T03:44:41.975Z,10.30
2019-03-03T03:47:17.325Z,8.63
2019-03-03T03:50:08.189Z,8.83
2019-03-03T03:52:56.526Z,7.20
2019-03-03T03:56:08.988Z,7.93
2019-03-03T03:58:59.867Z,8.70
2019-03-03T04:01:46.853Z,8.67
2019-03-03T04:04:33.484Z,13.27
2019-03-03T04:07:24.401Z,8.97
2019-03-03T04:10:15.649Z,10.60
2019-03-03T04:13:06.741Z,13.70
2019-03-03T04:16:00.699Z,9.83
2019-03-03T04:18:52.022Z,11.50
2019-03-03T04:21:38.587Z,8.33
2019-03-03T04:24:32.922Z,10.47
2019-03-03T04:27:19.447Z,8.63
2019-03-03T04:30:01.045Z,10.53
2019-03-03T04:32:52.118Z,13.67
2019-03-03T04:35:30.660Z,10.83
2019-03-03T04:38:21.548Z,10.87
2019-03-03T04:41:08.005Z,11.63
2019-03-03T04:43:58.919Z,13.13
2019-03-03T04:46:47.102Z,15.33
2019-03-03T04:49:36.723Z,10.73
2019-03-03T04:52:36.719Z,10.57
2019-03-03T04:55:30.935Z,10.87
2019-03-03T04:58:19.594Z,12.47
2019-03-03T05:00:58.407Z,13.47
2019-03-03T05:03:52.206Z,10.07
2019-03-03T05:06:27.489Z,14.13
2019-03-03T05:09:06.049Z,12.37
2019-03-03T05:12:06.569Z,15.63
2019-03-03T05:14:38.714Z,9.53
2019-03-03T05:17:25.110Z,15.27
2019-03-03T05:19:57.324Z,14.53
2019-03-03T05:22:27.725Z,11.60
2019-03-03T05:24:56.426Z,13.10
2019-03-03T05:27:27.406Z,13.00
2019-03-03T05:29:56.773Z,17.00
2019-03-03T05:32:25.704Z,14.27
2019-03-03T05:34:54.486Z,13.33
2019-03-03T05:37:23.235Z,11.23
2019-03-03T05:39:52.023Z,12.67
2019-03-03T05:42:20.741Z,14.97
2019-03-03T05:44:49.561Z,14.80
2019-03-03T05:47:18.350Z,11.37
2019-03-03T05:49:47.722Z,15.57
2019-03-03T05:52:16.500Z,12.70
2019-03-03T05:54:45.285Z,11.87
2019-03-03T05:57:14.574Z,11.50
2019-03-03T06:00:01.315Z,9.47
2019-03-03T06:02:30.106Z,14.20
2019-03-03T06:04:58.941Z,11.80
2019-03-03T06:10:08.907Z,12.40
2019-03-03T06:12:37.710Z,13.67
2019-03-03T06:15:07.258Z,14.23
2019-03-03T06:17:36.179Z,10.13
2019-03-03T06:20:05.408Z,12.73
2019-03-03T06:22:34.214Z,13.77
2019-03-03T06:25:02.946Z,15.67
2019-03-03T06:27:32.100Z,14.87
2019-03-03T06:30:01.230Z,16.35
2019-03-03T06:32:30.688Z,16.00
2019-03-03T06:34:59.515Z,18.87
2019-03-03T06:37:28.354Z,11.23
2019-03-03T06:39:57.264Z,11.60
2019-03-03T06:42:26.297Z,12.73
2019-03-03T06:44:55.181Z,18.87
2019-03-03T06:47:24.218Z,16.33
2019-03-03T06:49:52.978Z,17.10
2019-03-03T06:52:21.810Z,16.93
2019-03-03T06:54:50.943Z,17.50
2019-03-03T06:57:19.825Z,15.73
2019-03-03T06:59:48.594Z,14.60
2019-03-03T07:02:17.406Z,19.60
2019-03-03T07:04:47.071Z,14.97
2019-03-03T07:07:15.830Z,12.00
2019-03-03T07:09:44.651Z,17.00
2019-03-03T07:12:13.439Z,15.80
2019-03-03T07:14:43.051Z,14.37
2019-03-03T07:17:12.958Z,12.80
2019-03-03T07:19:41.767Z,16.67
2019-03-03T07:22:10.673Z,21.97
2019-03-03T07:24:39.486Z,14.73
2019-03-03T07:27:08.290Z,18.70
2019-03-03T07:29:38.859Z,16.83
2019-03-03T07:32:07.627Z,18.77
2019-03-03T07:34:36.719Z,17.77
2019-03-03T07:37:05.500Z,20.03
2019-03-03T07:39:34.647Z,21.23
2019-03-03T07:42:03.406Z,19.50
2019-03-03T07:44:32.247Z,18.67
2019-03-03T07:47:01.074Z,17.13
2019-03-03T07:49:29.892Z,20.80
2019-03-03T07:51:58.675Z,17.80
2019-03-03T07:54:27.497Z,20.30
2019-03-03T07:56:56.239Z,27.07
2019-03-03T07:59:25.136Z,21.27
2019-03-03T08:01:54.558Z,16.37
2019-03-03T08:04:23.359Z,20.20
2019-03-03T08:06:52.169Z,22.87
2019-03-03T08:09:23.286Z,23.37
2019-03-03T08:11:52.109Z,21.97
2019-03-03T08:14:21.025Z,24.40
2019-03-03T08:16:49.871Z,26.83
2019-03-03T08:19:18.657Z,20.37
2019-03-03T08:21:47.467Z,25.00
2019-03-03T08:24:16.261Z,24.17
2019-03-03T08:26:45.041Z,26.20
2019-03-03T08:29:13.863Z,22.30
2019-03-03T08:31:42.670Z,24.87
2019-03-03T08:34:11.463Z,25.03
2019-03-03T08:36:40.341Z,25.50
2019-03-03T08:39:09.231Z,21.87
2019-03-03T08:41:40.345Z,19.67
2019-03-03T08:44:28.628Z,19.67
2019-03-03T08:47:03.111Z,23.80
2019-03-03T08:49:40.926Z,24.77
2019-03-03T08:52:34.691Z,26.83
2019-03-03T08:55:34.752Z,24.73
2019-03-03T08:58:25.473Z,25.10
2019-03-03T09:01:11.714Z,27.43
2019-03-03T09:03:59.526Z,24.33
2019-03-03T09:06:37.017Z,28.70
2019-03-03T09:09:28.487Z,25.93
2019-03-03T09:12:18.875Z,25.67
2019-03-03T09:15:05.991Z,29.23
2019-03-03T09:18:00.313Z,22.30
2019-03-03T09:20:51.481Z,26.17
2019-03-03T09:23:30.973Z,26.40
2019-03-03T09:26:19.878Z,23.70
2019-03-03T09:28:54.442Z,18.27
2019-03-03T09:31:41.146Z,20.80
2019-03-03T09:34:20.691Z,20.37
2019-03-03T09:37:06.247Z,19.00
2019-03-03T09:39:53.006Z,21.57
2019-03-03T09:42:39.642Z,19.50
2019-03-03T09:45:26.424Z,16.33
2019-03-03T09:48:26.667Z,18.33
2019-03-03T09:51:13.123Z,17.73
2019-03-03T09:54:01.064Z,17.77
2019-03-03T09:57:04.285Z,20.70
2019-03-03T09:59:55.389Z,16.70
2019-03-03T10:02:39.195Z,16.87
2019-03-03T10:05:26.411Z,18.83
2019-03-03T10:08:11.283Z,18.87
2019-03-03T10:11:05.353Z,17.57
2019-03-03T10:13:46.668Z,19.93
2019-03-03T10:16:43.877Z,21.63
2019-03-03T10:19:44.078Z,20.47
2019-03-03T10:22:22.962Z,20.03
2019-03-03T10:25:08.172Z,19.53
2019-03-03T10:28:05.350Z,19.70
2019-03-03T10:30:52.190Z,22.03
2019-03-03T10:33:35.692Z,20.60
2019-03-03T10:36:25.386Z,22.50
2019-03-03T10:39:04.347Z,25.23
2019-03-03T10:42:07.276Z,23.67
2019-03-03T10:45:04.461Z,19.97
2019-03-03T10:47:53.170Z,21.40
2019-03-03T10:50:46.867Z,21.90
2019-03-03T10:53:50.235Z,23.67
2019-03-03T10:56:29.938Z,21.47
2019-03-03T10:59:07.467Z,24.13
2019-03-03T11:01:55.062Z,23.27
2019-03-03T11:04:42.023Z,21.70
2019-03-03T11:07:28.347Z,24.60
2019-03-03T11:10:16.480Z,23.57
2019-03-03T11:13:07.148Z,21.03
2019-03-03T11:15:53.041Z,24.00
2019-03-03T11:18:41.038Z,23.27
2019-03-03T11:21:29.278Z,24.80
2019-03-03T11:24:22.464Z,19.77
2019-03-03T11:27:09.491Z,20.83
2019-03-03T11:29:57.332Z,21.97
2019-03-03T11:32:48.255Z,21.50
2019-03-03T11:35:29.868Z,21.63
2019-03-03T11:38:07.898Z,18.63
2019-03-03T11:41:01.677Z,20.63
2019-03-03T11:43:41.745Z,18.93
2019-03-03T11:46:28.665Z,17.70
2019-03-03T11:49:09.896Z,18.67
2019-03-03T11:52:00.755Z,16.73
2019-03-03T11:54:51.664Z,18.07
2019-03-03T11:57:46.190Z,18.43
2019-03-03T12:00:23.158Z,17.83
2019-03-03T12:03:36.052Z,17.70
2019-03-03T12:06:36.306Z,18.27
2019-03-03T12:09:30.888Z,17.60
2019-03-03T12:12:17.407Z,17.43
2019-03-03T12:15:05.564Z,17.67
2019-03-03T12:17:52.486Z,18.07
2019-03-03T12:20:39.050Z,18.57
2019-03-03T12:23:38.878Z,18.60
2019-03-03T12:26:18.254Z,18.53
2019-03-03T12:29:06.677Z,17.77
2019-03-03T12:31:45.498Z,19.13
2019-03-03T12:34:23.295Z,18.10
2019-03-03T12:37:14.130Z,19.00
2019-03-03T12:39:49.735Z,18.43
2019-03-03T12:42:43.900Z,17.63
2019-03-03T12:45:35.690Z,17.30
2019-03-03T12:48:12.761Z,17.40
2019-03-03T12:51:08.428Z,18.77
2019-03-03T12:53:44.469Z,18.57
2019-03-03T12:56:32.435Z,21.10
2019-03-03T12:59:26.036Z,18.17
2019-03-03T13:02:13.907Z,17.13
2019-03-03T13:05:01.797Z,17.23
2019-03-03T13:07:52.958Z,17.93
2019-03-03T13:10:31.389Z,18.00
2019-03-03T13:13:11.967Z,17.70
2019-03-03T13:16:02.723Z,20.63
2019-03-03T13:18:40.476Z,20.50
2019-03-03T13:21:28.882Z,18.67
2019-03-03T13:24:24.528Z,18.60
2019-03-03T13:27:12.366Z,22.97
2019-03-03T13:30:09.400Z,20.00
2019-03-03T13:33:03.146Z,19.90
2019-03-03T13:35:57.198Z,22.50
2019-03-03T13:39:03.420Z,21.70
2019-03-03T13:41:39.287Z,20.73
2019-03-03T13:44:08.170Z,21.87
2019-03-03T13:46:37.095Z,21.63
2019-03-03T13:49:06.277Z,24.03
2019-03-03T13:51:35.059Z,21.13
2019-03-03T13:54:04.092Z,22.17
2019-03-03T13:56:34.380Z,24.17
2019-03-03T13:59:03.215Z,21.50
2019-03-03T14:01:32.391Z,21.63
2019-03-03T14:04:01.271Z,18.40
2019-03-03T14:06:30.234Z,17.07
2019-03-03T14:08:59.117Z,18.23
2019-03-03T14:11:28.246Z,15.73
2019-03-03T14:13:57.116Z,16.67
2019-03-03T14:16:25.978Z,18.20
2019-03-03T14:18:55.090Z,18.03
2019-03-03T14:21:24.062Z,15.20
2019-03-03T14:23:52.887Z,15.83
2019-03-03T14:26:21.752Z,21.17
2019-03-03T14:28:51.043Z,17.83
2019-03-03T14:31:19.847Z,14.80
2019-03-03T14:33:48.816Z,16.53
2019-03-03T14:36:18.106Z,15.10
2019-03-03T14:38:47.163Z,14.00
2019-03-03T14:41:16.137Z,14.80
2019-03-03T14:43:45.084Z,15.23
2019-03-03T14:46:14.420Z,16.80
2019-03-03T14:48:43.303Z,14.00
2019-03-03T14:51:12.148Z,15.77
2019-03-03T14:53:41.254Z,15.77
2019-03-03T14:56:10.102Z,14.77
2019-03-03T14:58:38.917Z,15.93
2019-03-03T15:01:07.808Z,18.20
2019-03-03T15:03:36.873Z,16.13
2019-03-03T15:06:06.471Z,18.53
2019-03-03T15:08:35.520Z,17.67
2019-03-03T15:11:04.370Z,17.83
2019-03-03T15:13:33.322Z,16.87
2019-03-03T15:16:02.248Z,16.90
2019-03-03T15:18:31.454Z,18.90
2019-03-03T15:21:00.371Z,15.80
2019-03-03T15:23:29.407Z,21.37
2019-03-03T15:25:58.408Z,21.37
2019-03-03T15:28:27.248Z,19.03
2019-03-03T15:30:56.227Z,23.40
2019-03-03T15:33:25.145Z,19.80
2019-03-03T15:35:54.094Z,21.93
2019-03-03T15:38:23.072Z,25.07
2019-03-03T15:40:52.037Z,24.30
2019-03-03T15:43:20.934Z,22.20
2019-03-03T15:45:49.807Z,29.90
2019-03-03T15:48:18.904Z,22.40
2019-03-03T15:50:47.707Z,19.53
2019-03-03T15:53:16.562Z,25.47
2019-03-03T15:55:45.359Z,20.90
2019-03-03T15:58:14.210Z,19.83
2019-03-03T16:00:43.106Z,20.67
2019-03-03T16:03:11.897Z,18.93
2019-03-03T16:05:41.241Z,16.47
2019-03-03T16:08:10.056Z,24.03
2019-03-03T16:10:39.535Z,16.93
2019-03-03T16:13:08.374Z,19.27
2019-03-03T16:15:37.209Z,21.40
2019-03-03T16:18:06.670Z,19.57
2019-03-03T16:20:54.573Z,16.77
2019-03-03T16:23:23.355Z,18.57
2019-03-03T16:25:52.510Z,18.60
2019-03-03T16:28:21.313Z,17.63
2019-03-03T16:30:50.259Z,18.63
2019-03-03T16:33:20.851Z,20.73
2019-03-03T16:35:49.697Z,16.50
2019-03-03T16:38:19.291Z,18.90
2019-03-03T16:40:48.306Z,22.07
2019-03-03T16:43:17.147Z,19.00
2019-03-03T16:45:46.952Z,13.97
2019-03-03T16:48:15.719Z,13.50
2019-03-03T16:50:45.247Z,11.80
2019-03-03T16:53:14.804Z,13.67
2019-03-03T16:55:43.881Z,16.97
2019-03-03T16:58:12.793Z,17.67
2019-03-03T17:00:41.794Z,10.40
2019-03-03T17:03:10.757Z,11.87
2019-03-03T17:05:39.707Z,12.17
2019-03-03T17:08:08.715Z,13.10
2019-03-03T17:10:37.650Z,12.67
2019-03-03T17:13:06.526Z,14.33
2019-03-03T17:15:35.473Z,12.77
2019-03-03T17:18:04.524Z,11.10
2019-03-03T17:20:33.498Z,11.80
2019-03-03T17:23:02.436Z,14.83
2019-03-03T17:25:33.680Z,14.77
2019-03-03T17:28:02.644Z,10.50
2019-03-03T17:30:31.727Z,17.43
2019-03-03T17:33:01.806Z,13.63
2019-03-03T17:35:30.638Z,16.10
2019-03-03T17:37:59.496Z,16.07
2019-03-03T17:40:28.355Z,10.83
2019-03-03T17:42:57.851Z,15.07
2019-03-03T17:45:27.438Z,13.97
2019-03-03T17:47:58.088Z,11.03
2019-03-03T17:50:29.480Z,13.30
2019-03-03T17:52:58.930Z,12.90
2019-03-03T17:55:28.227Z,15.18
2019-03-03T17:57:57.803Z,9.00
2019-03-03T18:00:29.350Z,14.93
2019-03-03T18:02:58.667Z,12.50
2019-03-03T18:05:27.916Z,14.07
2019-03-03T18:07:57.043Z,9.07
2019-03-03T18:10:26.027Z,12.63
2019-03-03T18:15:33.006Z,14.57
2019-03-03T18:18:02.028Z,12.73
2019-03-03T18:20:31.013Z,16.10
2019-03-03T18:23:00.015Z,9.47
2019-03-03T18:25:29.310Z,12.57
2019-03-03T18:27:58.391Z,13.30
2019-03-03T18:30:27.435Z,11.43
2019-03-03T18:32:56.251Z,10.97
2019-03-03T18:35:25.137Z,11.70
2019-03-03T18:37:54.495Z,14.77
2019-03-03T18:40:42.422Z,10.17
2019-03-03T18:43:11.257Z,9.57
2019-03-03T18:45:40.189Z,11.63
2019-03-03T18:48:09.014Z,9.90
2019-03-03T18:50:37.947Z,15.90
2019-03-03T18:53:07.050Z,10.77
2019-03-03T18:55:36.903Z,11.20
2019-03-03T18:58:08.314Z,10.87
2019-03-03T19:00:37.264Z,11.17
2019-03-03T19:03:06.546Z,13.77
2019-03-03T19:05:36.453Z,10.30
2019-03-03T19:08:06.915Z,10.73
2019-03-03T19:10:36.193Z,13.03
2019-03-03T19:13:05.112Z,13.63
2019-03-03T19:15:34.172Z,10.97
2019-03-03T19:18:03.236Z,12.57
2019-03-03T19:20:32.790Z,13.07
2019-03-03T19:23:01.796Z,11.17
2019-03-03T19:25:31.959Z,12.40
2019-03-03T19:28:02.478Z,10.20
2019-03-03T19:30:31.603Z,9.73
2019-03-03T19:33:26.304Z,12.47
2019-03-03T19:35:57.601Z,12.10
2019-03-03T19:38:29.796Z,9.77
2019-03-03T19:40:59.198Z,8.43
2019-03-03T19:43:28.543Z,14.93
2019-03-03T19:45:58.087Z,11.40
2019-03-03T19:48:27.311Z,11.27
2019-03-03T19:50:56.454Z,9.53
2019-03-03T19:53:25.393Z,8.47
2019-03-03T19:55:54.397Z,11.80
2019-03-03T19:58:23.236Z,14.30
2019-03-03T20:00:52.514Z,14.50
2019-03-03T20:03:21.492Z,10.10
2019-03-03T20:05:50.469Z,14.07
2019-03-03T20:08:19.702Z,8.50
2019-03-03T20:10:48.582Z,9.87
2019-03-03T20:13:17.538Z,12.00
2019-03-03T20:15:48.663Z,9.77
2019-03-03T20:18:17.540Z,12.40
2019-03-03T20:20:46.376Z,12.00
2019-03-03T20:23:15.874Z,9.98
2019-03-03T20:25:44.788Z,15.40
2019-03-03T20:28:13.700Z,10.10
2019-03-03T20:30:43.515Z,12.77
2019-03-03T20:33:12.556Z,15.03
2019-03-03T20:35:41.522Z,11.20
2019-03-03T20:38:10.386Z,10.73
2019-03-03T20:40:39.397Z,11.00
2019-03-03T20:43:08.286Z,11.00
2019-03-03T20:45:37.288Z,9.73
2019-03-03T20:48:06.081Z,7.97
2019-03-03T20:50:35.126Z,11.40
2019-03-03T20:53:04.179Z,10.60
2019-03-03T20:55:33.302Z,9.77
2019-03-03T20:58:02.240Z,10.20
2019-03-03T21:00:31.311Z,11.80
2019-03-03T21:03:00.203Z,10.20
2019-03-03T21:05:29.209Z,11.33
2019-03-03T21:07:58.249Z,9.70
2019-03-03T21:10:27.261Z,10.27
2019-03-03T21:12:56.130Z,8.83
2019-03-03T21:15:25.093Z,11.43
2019-03-03T21:17:54.159Z,10.30
2019-03-03T21:20:23.296Z,7.97
2019-03-03T21:22:52.189Z,8.80
2019-03-03T21:25:20.984Z,13.80
2019-03-03T21:27:50.092Z,8.67
2019-03-03T21:30:20.196Z,11.40
2019-03-03T21:32:49.077Z,9.10
2019-03-03T21:35:18.066Z,6.70
2019-03-03T21:37:47.081Z,8.87
2019-03-03T21:40:16.604Z,10.50
2019-03-03T21:42:45.586Z,9.27
2019-03-03T21:45:15.780Z,7.10
2019-03-03T21:47:44.845Z,8.57
2019-03-03T21:50:14.542Z,10.67
2019-03-03T21:52:43.351Z,8.37
2019-03-03T21:55:12.528Z,9.73
2019-03-03T21:57:41.290Z,8.17
2019-03-03T22:00:13.751Z,8.93
2019-03-03T22:02:43.267Z,6.60
2019-03-03T22:05:12.125Z,7.60
2019-03-03T22:07:41.035Z,9.73
2019-03-03T22:10:10.077Z,9.23
2019-03-03T22:12:39.106Z,11.57
2019-03-03T22:15:08.161Z,7.73
2019-03-03T22:17:37.508Z,7.17
2019-03-03T22:20:06.541Z,8.00
2019-03-03T22:22:35.876Z,6.87
2019-03-03T22:25:04.817Z,8.43
2019-03-03T22:27:34.102Z,7.87
2019-03-03T22:30:02.906Z,7.90
2019-03-03T22:32:31.697Z,7.37
2019-03-03T22:35:00.531Z,7.37
2019-03-03T22:37:37.239Z,11.03
2019-03-03T22:40:07.216Z,6.60
2019-03-03T22:42:36.046Z,9.53
2019-03-03T22:45:05.425Z,6.00
2019-03-03T22:47:34.276Z,6.87
2019-03-03T22:50:03.142Z,8.10
2019-03-03T22:52:31.989Z,5.80
2019-03-03T22:55:01.254Z,10.03
2019-03-03T22:57:30.026Z,11.63
2019-03-03T23:00:06.963Z,6.00
2019-03-03T23:02:35.717Z,8.10
2019-03-03T23:05:16.428Z,10.93
2019-03-03T23:08:03.641Z,6.77
2019-03-03T23:11:09.724Z,6.80
2019-03-03T23:13:40.763Z,9.83
2019-03-03T23:16:27.307Z,6.83
2019-03-03T23:19:13.763Z,8.13
2019-03-03T23:22:10.847Z,5.73
2019-03-03T23:24:52.783Z,5.47
2019-03-03T23:27:21.820Z,6.17
2019-03-03T23:29:50.646Z,6.57
2019-03-03T23:32:19.663Z,5.97
2019-03-03T23:34:48.496Z,5.27
2019-03-03T23:37:17.315Z,6.27
2019-03-03T23:39:46.234Z,6.70
2019-03-03T23:42:15.027Z,5.10
2019-03-03T23:44:45.078Z,7.00
2019-03-03T23:47:13.989Z,4.87
2019-03-03T23:49:43.474Z,4.83
2019-03-03T23:52:12.652Z,7.40
2019-03-03T23:54:41.516Z,3.97
2019-03-03T23:57:10.355Z,7.80
2019-03-03T23:59:39.215Z,5.93
